Time;durP1;ratioP1;P1;durP2;ratioP2;P2;SDS_P1;SDS_P2;PMS_P1;PMS_P2;Temp;Humidity;BMP_temperature;BMP_pressure;BME280_temperature;BME280_humidity;BME280_pressure;Samples;Min_cycle;Max_cycle;Signal;HPM_P1;HPM_P2
2022/03/01 00:00:37;;;;;;;8.15;4.15;;;;;;;;;;5014024;28;20049;-67
2022/03/01 00:03:44;;;;;;;8.20;4.60;;;;;;;;;;5013611;28;20038;-67
2022/03/01 00:07:16;;;;;;;10.52;4.38;;;;;;;;;;5013878;28;20054;-67
2022/03/01 00:10:20;;;;;;;6.63;4.32;;;;;;;;;;5013843;28;20060;-67
2022/03/01 00:13:25;;;;;;;8.10;4.28;;;;;;;;;;5013689;28;20050;-66
2022/03/01 00:16:55;;;;;;;8.13;3.75;;;;;;;;;;5013725;28;20049;-67
2022/03/01 00:19:59;;;;;;;12.38;4.10;;;;;;;;;;5013400;28;20363;-67
2022/03/01 00:23:07;;;;;;;7.68;4.25;;;;;;;;;;5001406;28;20049;-67
2022/03/01 00:26:11;;;;;;;8.65;4.20;;;;;;;;;;5013628;28;20371;-67
2022/03/01 00:29:15;;;;;;;6.47;4.25;;;;;;;;;;5012962;28;20054;-67
2022/03/01 00:32:20;;;;;;;6.35;3.70;;;;;;;;;;5013125;28;20034;-67
2022/03/01 00:35:25;;;;;;;7.38;4.13;;;;;;;;;;5013419;28;20041;-67
2022/03/01 00:38:30;;;;;;;8.88;4.07;;;;;;;;;;5001316;28;20038;-67
2022/03/01 00:41:34;;;;;;;10.68;4.75;;;;;;;;;;5013197;28;20637;-67
2022/03/01 00:44:39;;;;;;;9.18;4.22;;;;;;;;;;5012836;28;20393;-67
2022/03/01 00:47:43;;;;;;;10.45;4.82;;;;;;;;;;5013002;28;20427;-67
2022/03/01 00:50:48;;;;;;;6.25;3.67;;;;;;;;;;5012919;28;20046;-67
2022/03/01 00:53:52;;;;;;;6.22;3.95;;;;;;;;;;5013040;28;20034;-67
2022/03/01 00:56:57;;;;;;;9.02;4.55;;;;;;;;;;5012770;28;20034;-67
2022/03/01 01:00:02;;;;;;;6.47;3.90;;;;;;;;;;5012956;28;20042;-67
2022/03/01 01:03:06;;;;;;;6.30;3.90;;;;;;;;;;5012828;28;20034;-67
2022/03/01 01:06:11;;;;;;;9.77;4.50;;;;;;;;;;5012535;28;20046;-66
2022/03/01 01:09:16;;;;;;;12.32;3.90;;;;;;;;;;5000392;28;20395;-66
2022/03/01 01:12:20;;;;;;;8.68;4.03;;;;;;;;;;5012602;28;20046;-66
2022/03/01 01:15:25;;;;;;;8.02;4.20;;;;;;;;;;5011573;28;20030;-67
2022/03/01 01:18:30;;;;;;;7.20;4.50;;;;;;;;;;5012244;28;20037;-67
2022/03/01 01:24:57;;;;;;;6.22;3.70;;;;;;;;;;5012047;28;20037;-66
2022/03/01 01:28:02;;;;;;;7.25;3.95;;;;;;;;;;5012201;28;20050;-67
2022/03/01 01:31:06;;;;;;;6.32;3.72;;;;;;;;;;5012290;28;20046;-67
2022/03/01 01:34:10;;;;;;;8.27;4.28;;;;;;;;;;5012012;28;20038;-67
2022/03/01 01:37:14;;;;;;;6.93;3.85;;;;;;;;;;5012090;28;20045;-67
2022/03/01 01:40:23;;;;;;;8.15;4.40;;;;;;;;;;5012220;28;20049;-67
2022/03/01 01:43:56;;;;;;;9.07;4.30;;;;;;;;;;5012208;28;20371;-67
2022/03/01 01:47:01;;;;;;;8.02;5.00;;;;;;;;;;4999720;28;20493;-67
2022/03/01 01:50:06;;;;;;;8.63;4.18;;;;;;;;;;5012131;28;20050;-67
2022/03/01 01:53:10;;;;;;;9.32;4.57;;;;;;;;;;5011972;28;20041;-67
2022/03/01 01:56:15;;;;;;;8.88;4.22;;;;;;;;;;5011647;28;20037;-67
2022/03/01 01:59:19;;;;;;;7.00;4.00;;;;;;;;;;5011811;28;20049;-67
2022/03/01 02:02:26;;;;;;;6.90;4.13;;;;;;;;;;5011677;28;20037;-67
2022/03/01 02:05:33;;;;;;;7.35;4.30;;;;;;;;;;5011409;28;20387;-67
2022/03/01 02:08:38;;;;;;;9.00;4.70;;;;;;;;;;5011364;28;20050;-67
2022/03/01 02:11:43;;;;;;;6.30;3.97;;;;;;;;;;5011213;28;20038;-67
2022/03/01 02:14:47;;;;;;;9.15;4.45;;;;;;;;;;5011552;28;20046;-67
2022/03/01 02:17:53;;;;;;;6.85;4.07;;;;;;;;;;5011648;28;20375;-67
2022/03/01 02:20:58;;;;;;;7.78;4.38;;;;;;;;;;5011571;28;20371;-67
2022/03/01 02:24:02;;;;;;;8.05;3.75;;;;;;;;;;4999272;28;20482;-67
2022/03/01 02:27:06;;;;;;;8.13;3.78;;;;;;;;;;5010475;28;20038;-67
2022/03/01 02:30:11;;;;;;;8.32;3.60;;;;;;;;;;5011620;28;20045;-67
2022/03/01 02:33:15;;;;;;;7.32;3.78;;;;;;;;;;5011402;28;20033;-67
2022/03/01 02:36:19;;;;;;;6.28;3.58;;;;;;;;;;5011277;28;20489;-67
2022/03/01 02:39:23;;;;;;;10.77;4.85;;;;;;;;;;5011213;28;20034;-67
2022/03/01 02:42:30;;;;;;;8.68;3.90;;;;;;;;;;5011137;28;20042;-67
2022/03/01 02:46:00;;;;;;;7.07;4.10;;;;;;;;;;5011430;28;20358;-67
2022/03/01 02:49:07;;;;;;;7.13;3.78;;;;;;;;;;5011081;28;20050;-67
2022/03/01 02:52:11;;;;;;;8.95;3.45;;;;;;;;;;5011013;28;20034;-67
2022/03/01 02:55:16;;;;;;;10.57;3.60;;;;;;;;;;5011228;28;20068;-67
2022/03/01 02:58:21;;;;;;;6.03;3.35;;;;;;;;;;5011367;28;20046;-67
2022/03/01 03:01:28;;;;;;;6.15;3.85;;;;;;;;;;5010879;28;20046;-67
2022/03/01 03:04:32;;;;;;;6.53;3.30;;;;;;;;;;5010781;28;20050;-67
2022/03/01 03:07:37;;;;;;;7.25;4.50;;;;;;;;;;5011205;28;20473;-67
2022/03/01 03:10:42;;;;;;;7.32;3.42;;;;;;;;;;5010752;28;20041;-67
2022/03/01 03:13:46;;;;;;;4.20;3.03;;;;;;;;;;5010965;28;20378;-67
2022/03/01 03:16:51;;;;;;;5.20;3.03;;;;;;;;;;5010810;28;20046;-67
2022/03/01 03:19:55;;;;;;;7.95;3.50;;;;;;;;;;5011032;28;20054;-67
2022/03/01 03:22:59;;;;;;;8.07;3.70;;;;;;;;;;5010779;28;20042;-67
2022/03/01 03:26:07;;;;;;;7.45;3.40;;;;;;;;;;5010931;28;20046;-67
2022/03/01 03:29:11;;;;;;;7.32;3.45;;;;;;;;;;5010851;28;20386;-67
2022/03/01 03:32:40;;;;;;;8.38;3.72;;;;;;;;;;5010773;28;20494;-67
2022/03/01 03:35:44;;;;;;;8.70;3.25;;;;;;;;;;5010546;28;20117;-67
2022/03/01 03:38:49;;;;;;;8.20;3.58;;;;;;;;;;5013563;28;20030;-67
2022/03/01 03:41:53;;;;;;;7.57;3.70;;;;;;;;;;5014422;28;20037;-67
2022/03/01 03:44:57;;;;;;;5.72;3.00;;;;;;;;;;5014496;28;20038;-67
2022/03/01 03:48:02;;;;;;;6.30;3.35;;;;;;;;;;5014272;28;20042;-67
2022/03/01 03:51:07;;;;;;;5.75;3.28;;;;;;;;;;5014247;28;20046;-67
2022/03/01 03:54:12;;;;;;;5.07;3.60;;;;;;;;;;5002249;28;20038;-67
2022/03/01 03:57:16;;;;;;;6.78;3.92;;;;;;;;;;5014210;28;20045;-67
2022/03/01 04:00:20;;;;;;;8.65;4.00;;;;;;;;;;5014084;28;20049;-67
2022/03/01 04:03:24;;;;;;;9.55;4.25;;;;;;;;;;5013920;28;20383;-67
2022/03/01 04:06:29;;;;;;;8.18;3.90;;;;;;;;;;4994304;28;20050;-67
2022/03/01 04:09:34;;;;;;;6.07;3.65;;;;;;;;;;4994122;28;20054;-67
2022/03/01 04:12:38;;;;;;;22.25;7.50;;;;;;;;;;4994233;28;20363;-67
2022/03/01 04:15:44;;;;;;;13.93;5.75;;;;;;;;;;4994229;28;20042;-67
2022/03/01 04:18:48;;;;;;;8.40;4.13;;;;;;;;;;4993966;28;20038;-67
2022/03/01 04:21:52;;;;;;;8.13;3.40;;;;;;;;;;4994134;28;20042;-66
2022/03/01 04:24:57;;;;;;;6.40;3.20;;;;;;;;;;4994134;28;20042;-67
2022/03/01 04:28:01;;;;;;;7.70;3.58;;;;;;;;;;4993909;28;20042;-67
2022/03/01 04:31:06;;;;;;;6.53;3.83;;;;;;;;;;4993491;28;20478;-67
2022/03/01 04:34:10;;;;;;;5.93;3.30;;;;;;;;;;4993473;28;20482;-67
2022/03/01 04:37:16;;;;;;;8.40;3.20;;;;;;;;;;4993771;28;20042;-67
2022/03/01 04:40:20;;;;;;;8.63;4.10;;;;;;;;;;4993745;28;20035;-68
2022/03/01 04:43:25;;;;;;;4.45;3.00;;;;;;;;;;4993762;28;20042;-67
2022/03/01 04:46:55;;;;;;;6.00;3.30;;;;;;;;;;4993745;28;20046;-67
2022/03/01 04:50:00;;;;;;;4.75;3.25;;;;;;;;;;4992303;28;20058;-67
2022/03/01 04:53:06;;;;;;;7.80;3.65;;;;;;;;;;5014545;28;20034;-67
2022/03/01 04:56:10;;;;;;;4.93;3.17;;;;;;;;;;4993178;28;20046;-67
2022/03/01 04:59:15;;;;;;;8.20;3.33;;;;;;;;;;4992467;28;20050;-67
2022/03/01 05:02:19;;;;;;;6.18;3.13;;;;;;;;;;4993090;28;20046;-67
2022/03/01 05:05:23;;;;;;;9.02;3.03;;;;;;;;;;5006422;28;20046;-66
2022/03/01 05:08:31;;;;;;;6.15;3.20;;;;;;;;;;5012511;28;20482;-67
2022/03/01 05:11:36;;;;;;;4.82;3.15;;;;;;;;;;5012436;28;20367;-67
2022/03/01 05:14:40;;;;;;;4.55;2.75;;;;;;;;;;5000422;28;20383;-66
2022/03/01 05:17:45;;;;;;;3.85;2.65;;;;;;;;;;5012383;28;20050;-66
2022/03/01 05:20:50;;;;;;;5.07;2.97;;;;;;;;;;5012293;28;20041;-67
2022/03/01 05:23:54;;;;;;;5.30;3.22;;;;;;;;;;5012603;28;20038;-66
2022/03/01 05:26:58;;;;;;;6.25;2.97;;;;;;;;;;5012230;28;20041;-66
2022/03/01 05:30:04;;;;;;;3.58;2.65;;;;;;;;;;5012062;28;20046;-67
2022/03/01 05:33:09;;;;;;;4.47;2.40;;;;;;;;;;5012175;28;20042;-67
2022/03/01 05:36:14;;;;;;;7.50;3.10;;;;;;;;;;5012111;28;20034;-66
2022/03/01 05:39:44;;;;;;;3.90;2.58;;;;;;;;;;5012255;28;20037;-67
2022/03/01 05:42:51;;;;;;;9.95;2.78;;;;;;;;;;5011960;28;20046;-66
2022/03/01 05:45:55;;;;;;;5.05;2.83;;;;;;;;;;5011934;28;20367;-67
2022/03/01 05:49:00;;;;;;;4.38;2.85;;;;;;;;;;5012061;28;20049;-67
2022/03/01 05:52:05;;;;;;;3.38;2.42;;;;;;;;;;5011980;28;20374;-67
2022/03/01 05:55:10;;;;;;;4.63;2.80;;;;;;;;;;5011821;28;20042;-66
2022/03/01 05:58:40;;;;;;;3.45;2.40;;;;;;;;;;5011813;28;20038;-66
2022/03/01 06:01:44;;;;;;;5.88;2.58;;;;;;;;;;5011626;28;20037;-66
2022/03/01 06:04:52;;;;;;;3.95;2.70;;;;;;;;;;4999860;28;20050;-66
2022/03/01 06:07:57;;;;;;;4.65;3.00;;;;;;;;;;5011758;28;20053;-66
2022/03/01 06:11:01;;;;;;;5.40;2.83;;;;;;;;;;5011747;28;20057;-66
2022/03/01 06:14:06;;;;;;;5.07;3.15;;;;;;;;;;4999766;28;20034;-66
2022/03/01 06:17:11;;;;;;;7.03;3.90;;;;;;;;;;5011643;28;20045;-66
2022/03/01 06:20:17;;;;;;;6.80;3.10;;;;;;;;;;5012017;28;20371;-66
2022/03/01 06:28:02;;;;;;;5.53;3.05;;;;;;;;;;4951206;28;20066;-72
2022/03/01 06:31:08;;;;;;;9.98;3.75;;;;;;;;;;4952957;29;20051;-72
2022/03/01 06:34:38;;;;;;;8.88;3.33;;;;;;;;;;4952844;29;20047;-70
2022/03/01 06:37:42;;;;;;;5.25;3.05;;;;;;;;;;4953282;29;20047;-71
2022/03/01 06:41:12;;;;;;;5.07;3.03;;;;;;;;;;4953064;29;20379;-72
2022/03/01 06:44:20;;;;;;;5.55;2.75;;;;;;;;;;4952817;29;20044;-71
2022/03/01 06:47:24;;;;;;;4.75;3.22;;;;;;;;;;4952683;29;20043;-70
2022/03/01 06:50:29;;;;;;;4.20;2.75;;;;;;;;;;4952665;29;20494;-71
2022/03/01 06:53:34;;;;;;;7.28;3.20;;;;;;;;;;4952603;29;20035;-70
2022/03/01 06:56:39;;;;;;;7.55;3.17;;;;;;;;;;4952471;29;20035;-71
2022/03/01 06:59:47;;;;;;;9.77;2.90;;;;;;;;;;4952854;29;20040;-72
2022/03/01 07:02:51;;;;;;;4.72;2.90;;;;;;;;;;4953078;29;20043;-72
2022/03/01 07:05:56;;;;;;;4.25;2.95;;;;;;;;;;4952689;29;20035;-71
2022/03/01 07:09:00;;;;;;;5.30;3.00;;;;;;;;;;4952723;29;20047;-71
2022/03/01 07:12:05;;;;;;;5.75;2.80;;;;;;;;;;4952927;28;20360;-71
2022/03/01 07:15:10;;;;;;;3.78;2.92;;;;;;;;;;4956378;29;20039;-70
2022/03/01 07:18:15;;;;;;;3.83;2.45;;;;;;;;;;4956599;29;20475;-70
2022/03/01 07:21:19;;;;;;;2.72;1.77;;;;;;;;;;4956300;29;20040;-69
2022/03/01 07:24:25;;;;;;;5.10;2.53;;;;;;;;;;4956073;28;20380;-66
2022/03/01 07:27:56;;;;;;;4.30;2.70;;;;;;;;;;4994939;28;20514;-67
2022/03/01 07:31:02;;;;;;;4.72;2.65;;;;;;;;;;4994740;28;20054;-72
2022/03/01 07:34:06;;;;;;;4.88;2.40;;;;;;;;;;4995022;28;20038;-65
2022/03/01 07:37:12;;;;;;;5.53;2.60;;;;;;;;;;4994762;28;20038;-66
2022/03/01 07:40:41;;;;;;;4.93;2.55;;;;;;;;;;4994422;28;20050;-66
2022/03/01 07:44:11;;;;;;;4.47;2.78;;;;;;;;;;4994390;28;20038;-67
2022/03/01 07:47:16;;;;;;;4.03;2.40;;;;;;;;;;4993435;28;20034;-66
2022/03/01 07:50:21;;;;;;;5.28;2.25;;;;;;;;;;4992126;28;20046;-67
2022/03/01 07:53:25;;;;;;;6.70;2.45;;;;;;;;;;4993144;28;20348;-68
2022/03/01 07:56:54;;;;;;;6.10;2.78;;;;;;;;;;4994607;28;20054;-70
2022/03/01 08:00:00;;;;;;;3.30;2.28;;;;;;;;;;4994295;28;20034;-68
2022/03/01 08:03:04;;;;;;;4.90;2.83;;;;;;;;;;4994304;28;20106;-70
2022/03/01 08:06:34;;;;;;;4.45;2.50;;;;;;;;;;4994379;28;20038;-69
2022/03/01 08:09:39;;;;;;;8.05;2.55;;;;;;;;;;4993866;28;20038;-69
2022/03/01 08:12:43;;;;;;;7.35;3.00;;;;;;;;;;4994003;28;20038;-68
2022/03/01 08:15:48;;;;;;;5.32;2.83;;;;;;;;;;4993759;28;20034;-69
2022/03/01 08:18:53;;;;;;;4.53;2.90;;;;;;;;;;4994109;28;20046;-70
2022/03/01 08:21:57;;;;;;;3.97;2.83;;;;;;;;;;4993764;28;20042;-68
2022/03/01 08:25:02;;;;;;;5.65;2.53;;;;;;;;;;4993527;28;20485;-69
2022/03/01 08:28:32;;;;;;;4.03;2.80;;;;;;;;;;4993769;28;20034;-67
2022/03/01 08:31:41;;;;;;;8.32;3.10;;;;;;;;;;4993817;28;20046;-70
2022/03/01 08:34:45;;;;;;;4.68;3.05;;;;;;;;;;5004265;28;20034;-67
2022/03/01 08:37:51;;;;;;;6.63;3.13;;;;;;;;;;4992711;28;20383;-69
2022/03/01 08:40:56;;;;;;;3.78;2.63;;;;;;;;;;4992587;28;20038;-68
2022/03/01 08:44:00;;;;;;;3.28;2.20;;;;;;;;;;4993123;28;20042;-70
2022/03/01 08:47:04;;;;;;;6.07;2.80;;;;;;;;;;4993296;28;20042;-71
2022/03/01 08:50:09;;;;;;;7.55;3.55;;;;;;;;;;4992974;28;20183;-70
2022/03/01 08:53:14;;;;;;;3.70;2.97;;;;;;;;;;4993118;28;20363;-78
2022/03/01 08:56:43;;;;;;;8.15;4.70;;;;;;;;;;4992518;28;20501;-72
2022/03/01 09:00:14;;;;;;;8.18;4.57;;;;;;;;;;4992943;28;20442;-68
2022/03/01 09:03:19;;;;;;;6.95;3.80;;;;;;;;;;4993168;28;20042;-66
2022/03/01 09:06:25;;;;;;;6.65;3.45;;;;;;;;;;4992798;28;20371;-69
2022/03/01 09:09:30;;;;;;;7.07;3.72;;;;;;;;;;4992888;28;20038;-68
2022/03/01 09:12:34;;;;;;;5.47;3.10;;;;;;;;;;4992772;28;20038;-67
2022/03/01 09:15:40;;;;;;;5.95;3.50;;;;;;;;;;4991735;28;20042;-69
2022/03/01 09:18:44;;;;;;;5.55;3.55;;;;;;;;;;4991495;28;20042;-70
2022/03/01 09:21:48;;;;;;;8.50;3.50;;;;;;;;;;4991977;28;20030;-67
2022/03/01 09:24:53;;;;;;;10.23;3.47;;;;;;;;;;4991617;28;20046;-68
2022/03/01 09:27:57;;;;;;;9.07;3.45;;;;;;;;;;4992121;28;20050;-69
2022/03/01 09:31:28;;;;;;;6.32;3.13;;;;;;;;;;4992502;28;20046;-68
2022/03/01 09:34:33;;;;;;;5.85;3.13;;;;;;;;;;4992149;28;20038;-67
2022/03/01 09:37:37;;;;;;;6.43;3.53;;;;;;;;;;4992592;28;20038;-69
2022/03/01 09:41:08;;;;;;;9.30;3.80;;;;;;;;;;4992597;28;20034;-69
2022/03/01 09:44:12;;;;;;;7.57;3.95;;;;;;;;;;4992236;28;20050;-69
2022/03/01 09:47:17;;;;;;;5.13;3.47;;;;;;;;;;4992365;28;20038;-69
2022/03/01 09:50:27;;;;;;;5.40;3.17;;;;;;;;;;4992153;28;20098;-68
2022/03/01 09:53:32;;;;;;;5.10;3.67;;;;;;;;;;4991496;28;20042;-68
2022/03/01 09:56:37;;;;;;;8.10;4.20;;;;;;;;;;4992340;28;20042;-67
2022/03/01 09:59:44;;;;;;;7.15;3.65;;;;;;;;;;4992212;28;20034;-68
2022/03/01 10:02:53;;;;;;;7.32;3.70;;;;;;;;;;4992232;28;20046;-68
2022/03/01 10:06:11;;;;;;;7.22;3.83;;;;;;;;;;4991948;28;20042;-69
2022/03/01 10:09:17;;;;;;;7.57;4.38;;;;;;;;;;4991958;28;20046;-67
2022/03/01 10:12:23;;;;;;;11.38;3.80;;;;;;;;;;4992131;28;20046;-71
2022/03/01 10:15:29;;;;;;;6.13;3.40;;;;;;;;;;4991657;28;20041;-70
2022/03/01 10:18:41;;;;;;;10.13;3.88;;;;;;;;;;4991718;28;20042;-70
2022/03/01 10:21:49;;;;;;;6.85;3.15;;;;;;;;;;4991489;28;20057;-67
2022/03/01 10:24:54;;;;;;;5.50;4.15;;;;;;;;;;4990033;28;20478;-68
2022/03/01 10:27:58;;;;;;;6.30;4.32;;;;;;;;;;4991394;28;20384;-69
2022/03/01 10:31:13;;;;;;;6.53;3.85;;;;;;;;;;4991260;28;20513;-68
2022/03/01 10:34:19;;;;;;;7.70;3.92;;;;;;;;;;4991195;28;20034;-68
2022/03/01 10:37:26;;;;;;;9.45;3.80;;;;;;;;;;4990667;28;20046;-67
2022/03/01 10:40:31;;;;;;;7.75;4.07;;;;;;;;;;4990983;28;20034;-66
2022/03/01 10:43:35;;;;;;;8.27;3.95;;;;;;;;;;4991024;28;20034;-68
2022/03/01 10:47:05;;;;;;;5.25;3.33;;;;;;;;;;4991737;28;20039;-66
2022/03/01 10:50:11;;;;;;;8.65;3.72;;;;;;;;;;4995246;28;20050;-68
2022/03/01 10:53:16;;;;;;;5.82;3.45;;;;;;;;;;4995007;28;20030;-68
2022/03/01 10:56:21;;;;;;;10.75;3.90;;;;;;;;;;4995077;28;20387;-69
2022/03/01 10:59:27;;;;;;;7.90;4.13;;;;;;;;;;4995135;28;20038;-71
2022/03/01 11:02:35;;;;;;;6.30;4.03;;;;;;;;;;4995196;28;20042;-69
2022/03/01 11:05:41;;;;;;;15.27;4.95;;;;;;;;;;4994991;28;20038;-69
2022/03/01 11:09:11;;;;;;;7.43;3.50;;;;;;;;;;4994936;28;20046;-68
2022/03/01 11:12:21;;;;;;;4.68;3.47;;;;;;;;;;4994885;28;20038;-68
2022/03/01 11:15:33;;;;;;;5.18;3.25;;;;;;;;;;4994944;28;20046;-69
2022/03/01 11:18:40;;;;;;;5.78;3.75;;;;;;;;;;4994871;28;20046;-68
2022/03/01 11:21:47;;;;;;;6.53;3.97;;;;;;;;;;4995104;28;20038;-68
2022/03/01 11:24:52;;;;;;;7.03;3.78;;;;;;;;;;4994320;28;20482;-69
2022/03/01 11:28:01;;;;;;;8.77;3.22;;;;;;;;;;4994687;28;20050;-70
2022/03/01 11:31:05;;;;;;;7.97;3.47;;;;;;;;;;4994693;28;20043;-71
2022/03/01 11:34:16;;;;;;;10.40;3.88;;;;;;;;;;4994619;28;20034;-69
2022/03/01 11:37:23;;;;;;;4.93;3.58;;;;;;;;;;4994610;28;20046;-70
2022/03/01 11:40:29;;;;;;;5.97;2.85;;;;;;;;;;4994967;28;20042;-72
2022/03/01 11:43:36;;;;;;;5.45;3.35;;;;;;;;;;4994700;28;20034;-77
2022/03/01 11:46:42;;;;;;;8.15;3.47;;;;;;;;;;4994633;28;20038;-71
2022/03/01 11:49:47;;;;;;;3.78;2.88;;;;;;;;;;4993379;28;20134;-70
2022/03/01 11:53:01;;;;;;;5.07;3.05;;;;;;;;;;4994536;28;20042;-69
2022/03/01 11:56:30;;;;;;;5.60;3.30;;;;;;;;;;4994446;28;20451;-68
2022/03/01 11:59:37;;;;;;;6.57;3.50;;;;;;;;;;4993646;28;20030;-70
2022/03/01 12:02:45;;;;;;;5.25;3.70;;;;;;;;;;4993230;28;20034;-68
2022/03/01 12:05:50;;;;;;;5.30;3.15;;;;;;;;;;4993903;28;20030;-67
2022/03/01 12:08:57;;;;;;;4.80;3.30;;;;;;;;;;4993814;28;20046;-68
2022/03/01 12:12:06;;;;;;;11.45;3.67;;;;;;;;;;4993973;28;20046;-71
2022/03/01 12:15:12;;;;;;;4.80;3.60;;;;;;;;;;4993676;28;20045;-71
2022/03/01 12:18:17;;;;;;;5.82;4.00;;;;;;;;;;4993708;28;20046;-71
2022/03/01 12:21:21;;;;;;;9.48;4.70;;;;;;;;;;4993713;28;20042;-73
2022/03/01 12:24:28;;;;;;;6.63;4.57;;;;;;;;;;4993638;28;20039;-71
2022/03/01 12:27:32;;;;;;;4.82;3.30;;;;;;;;;;4993041;28;20065;-72
2022/03/01 12:30:43;;;;;;;6.55;3.78;;;;;;;;;;4993497;28;20050;-73
2022/03/01 12:33:54;;;;;;;7.53;5.50;;;;;;;;;;4993639;28;20042;-69
2022/03/01 12:36:59;;;;;;;5.18;3.70;;;;;;;;;;5003748;28;20043;-69
2022/03/01 12:40:04;;;;;;;8.85;5.10;;;;;;;;;;4993810;28;20042;-69
2022/03/01 12:43:11;;;;;;;6.45;4.15;;;;;;;;;;4993710;28;20050;-69
2022/03/01 12:46:16;;;;;;;5.32;3.80;;;;;;;;;;4993541;28;20039;-69
2022/03/01 12:49:20;;;;;;;4.97;3.20;;;;;;;;;;4993742;28;20479;-69
2022/03/01 12:52:25;;;;;;;7.72;3.53;;;;;;;;;;4993659;28;20046;-68
2022/03/01 12:55:29;;;;;;;9.98;3.67;;;;;;;;;;4992846;28;20479;-67
2022/03/01 12:58:34;;;;;;;8.90;3.92;;;;;;;;;;4993485;28;20039;-68
2022/03/01 13:01:44;;;;;;;5.07;3.15;;;;;;;;;;4992470;28;20034;-69
2022/03/01 13:05:22;;;;;;;4.32;3.15;;;;;;;;;;4993227;28;20039;-68
2022/03/01 13:11:31;;;;;;;6.57;4.05;;;;;;;;;;5021635;23;20088;-68
2022/03/01 13:15:01;;;;;;;6.53;3.88;;;;;;;;;;4965168;28;20046;-70
2022/03/01 13:18:05;;;;;;;7.25;4.68;;;;;;;;;;4961986;28;20039;-66
2022/03/01 13:21:36;;;;;;;6.93;3.30;;;;;;;;;;4973509;28;20039;-69
2022/03/01 13:24:50;;;;;;;6.65;3.45;;;;;;;;;;4973061;28;20038;-66
2022/03/01 13:27:55;;;;;;;7.72;3.92;;;;;;;;;;4973206;28;20031;-69
2022/03/01 13:31:01;;;;;;;5.30;3.42;;;;;;;;;;4972938;28;20383;-70
2022/03/01 13:34:06;;;;;;;6.63;2.70;;;;;;;;;;4972996;28;20039;-70
2022/03/01 13:37:12;;;;;;;6.53;3.38;;;;;;;;;;4973335;28;20474;-70
2022/03/01 13:40:18;;;;;;;7.82;3.17;;;;;;;;;;4972999;28;20043;-70
2022/03/01 13:43:26;;;;;;;10.30;4.07;;;;;;;;;;4972836;28;20047;-69
2022/03/01 13:46:31;;;;;;;6.18;3.60;;;;;;;;;;4972946;28;20039;-68
2022/03/01 13:49:36;;;;;;;7.28;3.63;;;;;;;;;;4972737;28;20348;-68
2022/03/01 13:53:10;;;;;;;10.25;5.32;;;;;;;;;;4972589;28;20502;-68
2022/03/01 13:56:14;;;;;;;6.63;3.60;;;;;;;;;;4972795;28;20363;-67
2022/03/01 13:59:53;;;;;;;5.57;3.13;;;;;;;;;;4972595;28;20482;-68
2022/03/01 14:02:59;;;;;;;7.82;3.33;;;;;;;;;;4972951;28;20038;-69
2022/03/01 14:06:11;;;;;;;15.98;6.82;;;;;;;;;;4972687;28;20046;-69
2022/03/01 14:09:16;;;;;;;11.07;4.20;;;;;;;;;;4972570;28;20047;-67
2022/03/01 14:12:53;;;;;;;10.32;3.70;;;;;;;;;;4972375;28;20390;-69
2022/03/01 14:16:18;;;;;;;9.00;4.15;;;;;;;;;;4961397;28;20402;-69
2022/03/01 14:19:22;;;;;;;8.43;3.80;;;;;;;;;;4972626;28;20046;-68
2022/03/01 14:22:27;;;;;;;9.88;5.60;;;;;;;;;;4972330;28;20035;-69
2022/03/01 14:25:32;;;;;;;13.07;4.88;;;;;;;;;;4972385;28;20443;-69
2022/03/01 14:28:37;;;;;;;10.63;5.22;;;;;;;;;;4972428;28;20506;-69
2022/03/01 14:31:43;;;;;;;8.70;4.82;;;;;;;;;;4948856;28;20057;-69
2022/03/01 14:34:48;;;;;;;6.93;3.83;;;;;;;;;;4972121;28;20034;-66
2022/03/01 14:37:52;;;;;;;10.60;5.22;;;;;;;;;;4971903;28;20043;-68
2022/03/01 14:40:56;;;;;;;8.60;4.90;;;;;;;;;;4971880;28;20506;-67
2022/03/01 14:44:01;;;;;;;9.00;3.80;;;;;;;;;;4972398;28;20055;-69
2022/03/01 14:47:05;;;;;;;7.90;3.75;;;;;;;;;;4949200;28;20035;-70
2022/03/01 14:50:10;;;;;;;6.32;3.58;;;;;;;;;;4972235;28;20050;-70
2022/03/01 14:53:14;;;;;;;5.85;3.38;;;;;;;;;;4972254;28;20042;-69
2022/03/01 14:56:20;;;;;;;6.90;4.38;;;;;;;;;;4971552;28;20047;-69
2022/03/01 14:59:25;;;;;;;6.75;4.40;;;;;;;;;;4971871;28;20035;-68
2022/03/01 15:02:29;;;;;;;8.07;4.22;;;;;;;;;;4971988;28;20047;-68
2022/03/01 15:05:34;;;;;;;14.75;7.35;;;;;;;;;;4971557;28;20039;-68
2022/03/01 15:08:38;;;;;;;11.48;4.13;;;;;;;;;;4971248;28;20054;-68
2022/03/01 15:11:43;;;;;;;19.73;7.45;;;;;;;;;;4971390;28;20161;-68
2022/03/01 15:14:50;;;;;;;17.85;8.90;;;;;;;;;;4971512;28;20042;-69
2022/03/01 15:17:54;;;;;;;8.02;3.97;;;;;;;;;;4971716;28;20051;-69
2022/03/01 15:20:59;;;;;;;6.13;3.97;;;;;;;;;;4971596;28;20027;-69
2022/03/01 15:24:08;;;;;;;10.10;6.05;;;;;;;;;;4971796;28;20046;-68
2022/03/01 15:27:13;;;;;;;9.52;4.07;;;;;;;;;;4971780;28;20045;-68
2022/03/01 15:30:18;;;;;;;7.82;4.60;;;;;;;;;;4971534;28;20047;-68
2022/03/01 15:33:22;;;;;;;8.40;3.88;;;;;;;;;;4972316;28;20190;-68
2022/03/01 15:36:26;;;;;;;11.60;4.45;;;;;;;;;;4974737;28;20035;-68
2022/03/01 15:39:30;;;;;;;25.80;9.38;;;;;;;;;;4962228;28;20047;-68
2022/03/01 15:42:35;;;;;;;7.90;3.88;;;;;;;;;;4975242;28;20043;-67
2022/03/01 15:45:40;;;;;;;7.35;3.58;;;;;;;;;;4975043;28;20030;-68
2022/03/01 15:48:44;;;;;;;10.95;5.68;;;;;;;;;;4975153;28;20035;-67
2022/03/01 15:51:48;;;;;;;10.27;3.90;;;;;;;;;;4974945;28;20058;-68
2022/03/01 15:54:53;;;;;;;66.13;29.63;;;;;;;;;;4974691;28;20035;-67
2022/03/01 15:57:58;;;;;;;12.85;6.25;;;;;;;;;;4974757;28;20049;-68
2022/03/01 16:01:02;;;;;;;8.05;4.10;;;;;;;;;;4974738;28;20043;-70
2022/03/01 16:04:06;;;;;;;9.38;3.72;;;;;;;;;;4974579;28;20038;-69
2022/03/01 16:07:12;;;;;;;9.07;4.65;;;;;;;;;;4951415;28;20039;-70
2022/03/01 16:10:16;;;;;;;9.77;5.25;;;;;;;;;;4974129;28;20046;-69
2022/03/01 16:13:21;;;;;;;9.90;4.82;;;;;;;;;;4974599;28;20486;-69
2022/03/01 16:16:25;;;;;;;8.60;4.35;;;;;;;;;;4974355;28;20034;-69
2022/03/01 16:19:29;;;;;;;9.43;5.50;;;;;;;;;;4974359;28;20046;-68
2022/03/01 16:22:34;;;;;;;9.90;4.88;;;;;;;;;;4962079;28;20047;-68
2022/03/01 16:25:38;;;;;;;7.47;4.30;;;;;;;;;;4974619;28;20042;-69
2022/03/01 16:28:43;;;;;;;12.73;6.30;;;;;;;;;;4962283;28;20050;-71
2022/03/01 16:31:47;;;;;;;14.60;7.95;;;;;;;;;;4973907;28;20042;-71
2022/03/01 16:34:51;;;;;;;11.60;6.40;;;;;;;;;;4974241;28;20047;-69
2022/03/01 16:37:56;;;;;;;17.55;10.73;;;;;;;;;;4973931;28;20501;-69
2022/03/01 16:41:00;;;;;;;6.40;3.63;;;;;;;;;;4973971;28;20049;-69
2022/03/01 16:44:05;;;;;;;10.98;4.60;;;;;;;;;;4973555;28;20038;-70
2022/03/01 16:47:09;;;;;;;10.98;5.95;;;;;;;;;;4973724;28;20489;-70
2022/03/01 16:50:14;;;;;;;19.15;6.93;;;;;;;;;;4973503;28;20042;-69
2022/03/01 16:53:18;;;;;;;7.35;4.53;;;;;;;;;;4973675;28;20397;-69
2022/03/01 16:56:23;;;;;;;16.92;8.85;;;;;;;;;;4962224;28;20051;-68
2022/03/01 16:59:27;;;;;;;18.40;9.57;;;;;;;;;;4973395;28;20071;-70
2022/03/01 17:02:31;;;;;;;9.93;5.53;;;;;;;;;;4973386;28;20035;-68
2022/03/01 17:05:36;;;;;;;12.63;5.93;;;;;;;;;;4973709;28;20051;-69
2022/03/01 17:08:41;;;;;;;12.95;7.30;;;;;;;;;;4973320;28;20362;-71
2022/03/01 17:11:45;;;;;;;9.25;4.90;;;;;;;;;;4973224;28;20066;-69
2022/03/01 17:14:49;;;;;;;9.05;4.85;;;;;;;;;;4961597;28;20479;-68
2022/03/01 17:17:53;;;;;;;15.50;9.52;;;;;;;;;;4973208;28;20042;-69
2022/03/01 17:20:58;;;;;;;10.80;6.05;;;;;;;;;;4973440;28;20038;-68
2022/03/01 17:24:03;;;;;;;13.90;5.03;;;;;;;;;;4973439;28;20050;-68
2022/03/01 17:27:07;;;;;;;13.07;7.07;;;;;;;;;;4973325;28;20051;-67
2022/03/01 17:30:12;;;;;;;15.02;8.23;;;;;;;;;;4972724;28;20038;-68
2022/03/01 17:33:16;;;;;;;18.95;9.10;;;;;;;;;;4972908;28;20042;-68
2022/03/01 17:36:21;;;;;;;21.65;9.38;;;;;;;;;;4972831;28;20045;-69
2022/03/01 17:39:26;;;;;;;16.52;8.05;;;;;;;;;;4972789;28;20050;-69
2022/03/01 17:42:31;;;;;;;19.10;7.40;;;;;;;;;;4972909;28;20050;-69
2022/03/01 17:45:35;;;;;;;12.00;6.30;;;;;;;;;;4973353;28;20044;-69
2022/03/01 17:48:41;;;;;;;14.27;8.05;;;;;;;;;;4972531;28;20043;-66
2022/03/01 17:51:46;;;;;;;12.68;6.93;;;;;;;;;;4972351;28;20047;-69
2022/03/01 17:54:50;;;;;;;22.08;11.48;;;;;;;;;;4972911;28;20042;-69
2022/03/01 17:57:55;;;;;;;11.20;8.30;;;;;;;;;;4972388;28;20053;-71
2022/03/01 18:00:59;;;;;;;11.95;6.35;;;;;;;;;;4972755;28;20042;-71
2022/03/01 18:04:03;;;;;;;11.80;6.20;;;;;;;;;;4960861;28;20380;-68
2022/03/01 18:07:08;;;;;;;14.98;6.90;;;;;;;;;;4960353;28;20392;-69
2022/03/01 18:10:13;;;;;;;16.83;7.75;;;;;;;;;;4971921;28;20046;-68
2022/03/01 18:13:17;;;;;;;13.57;8.50;;;;;;;;;;4975811;28;20049;-71
2022/03/01 18:16:23;;;;;;;11.73;6.90;;;;;;;;;;4971843;28;20045;-71
2022/03/01 18:19:27;;;;;;;12.70;7.25;;;;;;;;;;4972080;28;20645;-71
2022/03/01 18:22:32;;;;;;;13.98;10.23;;;;;;;;;;4971019;28;20375;-70
2022/03/01 18:25:36;;;;;;;11.88;6.75;;;;;;;;;;4971518;28;20114;-70
2022/03/01 18:28:41;;;;;;;16.23;8.70;;;;;;;;;;4972152;28;20042;-71
2022/03/01 18:31:45;;;;;;;12.35;6.80;;;;;;;;;;4971741;28;20058;-70
2022/03/01 18:34:49;;;;;;;12.10;7.15;;;;;;;;;;4960073;28;20051;-71
2022/03/01 18:37:54;;;;;;;20.23;10.27;;;;;;;;;;4971995;28;20527;-70
2022/03/01 18:40:58;;;;;;;16.02;8.63;;;;;;;;;;4971840;28;20054;-70
2022/03/01 18:44:03;;;;;;;19.83;13.13;;;;;;;;;;4971681;28;20047;-70
2022/03/01 18:47:08;;;;;;;25.20;11.73;;;;;;;;;;4971660;28;20046;-69
2022/03/01 18:50:15;;;;;;;25.90;13.13;;;;;;;;;;4970542;28;20069;-70